createdAt,value
2022-07-29T00:06:32.830Z,19.29
2022-07-29T00:17:01.842Z,19.20
2022-07-29T00:27:30.728Z,19.21
2022-07-29T00:37:59.879Z,19.20
2022-07-29T00:48:30.946Z,19.08
2022-07-29T00:59:01.290Z,19.07
2022-07-29T01:09:42.106Z,19.00
2022-07-29T01:20:20.870Z,18.89
2022-07-29T01:30:53.350Z,18.77
2022-07-29T01:41:24.401Z,18.60
2022-07-29T01:51:57.195Z,18.66
2022-07-29T02:02:27.297Z,18.86
2022-07-29T02:12:57.684Z,18.85
2022-07-29T02:23:28.167Z,18.75
2022-07-29T02:33:58.679Z,18.73
2022-07-29T02:44:34.164Z,18.46
2022-07-29T02:55:12.164Z,18.54
2022-07-29T03:05:42.467Z,18.82
2022-07-29T03:16:14.279Z,18.92
2022-07-29T03:26:43.431Z,18.70
2022-07-29T03:37:12.220Z,18.57
2022-07-29T03:47:51.140Z,18.55
2022-07-29T03:58:23.696Z,18.52
2022-07-29T04:08:52.598Z,18.39
2022-07-29T04:19:21.511Z,18.71
2022-07-29T04:29:56.480Z,18.88
2022-07-29T04:40:26.395Z,18.87
2022-07-29T04:50:55.434Z,18.96
2022-07-29T05:01:24.853Z,19.27
2022-07-29T05:11:54.058Z,20.06
2022-07-29T05:22:23.582Z,20.59
2022-07-29T05:32:52.786Z,21.17
2022-07-29T05:43:22.416Z,21.67
2022-07-29T05:53:52.632Z,22.26
2022-07-29T06:04:21.943Z,22.94
2022-07-29T06:14:54.245Z,23.38
2022-07-29T06:25:24.016Z,23.85
2022-07-29T06:35:55.140Z,23.91
2022-07-29T06:46:26.413Z,23.98
2022-07-29T06:56:55.438Z,24.34
2022-07-29T07:07:24.639Z,24.31
2022-07-29T07:17:53.753Z,24.60
2022-07-29T07:28:24.600Z,24.50
2022-07-29T07:38:53.633Z,24.50
2022-07-29T07:49:22.659Z,24.63
2022-07-29T07:59:51.725Z,24.66
2022-07-29T08:10:35.560Z,24.76
2022-07-29T08:21:04.465Z,24.69
2022-07-29T08:31:33.515Z,24.85
2022-07-29T08:42:02.718Z,25.06
2022-07-29T08:52:35.302Z,25.15
2022-07-29T09:03:04.815Z,25.36
2022-07-29T09:13:33.804Z,25.72
2022-07-29T09:24:11.342Z,25.71
2022-07-29T09:34:40.717Z,25.82
2022-07-29T09:45:11.777Z,26.00
2022-07-29T09:55:53.441Z,26.22
2022-07-29T10:06:23.067Z,26.34
2022-07-29T10:16:52.584Z,26.46
2022-07-29T10:27:22.006Z,26.62
2022-07-29T10:38:16.514Z,26.76
2022-07-29T10:49:08.732Z,26.73
2022-07-29T10:59:38.517Z,26.73
2022-07-29T11:10:31.246Z,26.79
2022-07-29T11:21:01.811Z,26.83
2022-07-29T11:31:44.245Z,26.67
2022-07-29T11:42:44.569Z,26.64
2022-07-29T11:53:17.445Z,26.68
2022-07-29T12:03:46.578Z,26.78
2022-07-29T12:14:30.785Z,26.80
2022-07-29T12:25:31.939Z,26.92
2022-07-29T12:36:07.189Z,27.01
2022-07-29T12:46:40.088Z,27.03
2022-07-29T12:57:09.197Z,26.96
2022-07-29T13:07:55.291Z,26.96
2022-07-29T13:18:33.455Z,27.02
2022-07-29T13:29:02.536Z,27.03
2022-07-29T13:39:31.885Z,26.97
2022-07-29T13:50:00.937Z,26.95
2022-07-29T14:00:30.090Z,27.03
2022-07-29T14:10:59.311Z,27.18
2022-07-29T14:21:28.427Z,27.18
2022-07-29T14:31:57.798Z,27.27
2022-07-29T14:42:26.984Z,27.33
2022-07-29T14:52:55.932Z,27.42
2022-07-29T15:03:25.992Z,27.39
2022-07-29T15:13:55.044Z,27.31
2022-07-29T15:24:24.274Z,27.25
2022-07-29T15:34:53.132Z,27.17
2022-07-29T15:45:22.200Z,27.01
2022-07-29T15:55:51.056Z,26.91
2022-07-29T16:06:20.371Z,26.80
2022-07-29T16:16:49.613Z,26.14
2022-07-29T16:27:18.564Z,25.48
2022-07-29T16:37:47.493Z,25.33
2022-07-29T16:48:18.706Z,25.15
2022-07-29T16:58:47.701Z,25.00
2022-07-29T17:09:16.881Z,24.95
2022-07-29T17:19:47.128Z,24.82
2022-07-29T17:30:16.702Z,24.73
2022-07-29T17:40:45.498Z,24.58
2022-07-29T17:51:15.574Z,24.41
2022-07-29T18:01:44.762Z,23.95
2022-07-29T18:12:14.231Z,23.61
2022-07-29T18:22:45.293Z,23.39
2022-07-29T18:33:22.116Z,23.44
2022-07-29T18:43:51.396Z,23.37
2022-07-29T18:54:20.675Z,23.41
2022-07-29T19:04:51.148Z,23.30
2022-07-29T19:15:20.696Z,23.21
2022-07-29T19:25:53.760Z,23.12
2022-07-29T19:36:23.255Z,22.97
2022-07-29T19:46:52.144Z,22.79
2022-07-29T19:57:21.346Z,22.67
2022-07-29T20:07:50.408Z,22.22
2022-07-29T20:18:20.629Z,21.98
2022-07-29T20:28:49.789Z,22.16
2022-07-29T20:39:19.031Z,22.37
2022-07-29T20:49:50.010Z,22.44
2022-07-29T21:00:19.547Z,22.42
2022-07-29T21:10:48.540Z,22.43
2022-07-29T21:21:18.400Z,22.27
2022-07-29T21:31:47.258Z,22.10
2022-07-29T21:42:16.056Z,22.17
2022-07-29T21:52:45.020Z,22.28
2022-07-29T22:03:14.127Z,22.31
2022-07-29T22:13:43.060Z,22.30
2022-07-29T22:24:12.862Z,22.30
2022-07-29T22:34:41.753Z,22.12
2022-07-29T22:45:12.529Z,22.13
2022-07-29T22:55:41.455Z,21.94
2022-07-29T23:06:10.529Z,21.92
2022-07-29T23:16:39.486Z,21.96
2022-07-29T23:27:08.711Z,21.95
2022-07-29T23:37:38.068Z,21.80
2022-07-29T23:48:07.389Z,21.75
2022-07-29T23:58:36.932Z,21.62
